Time;durP1;ratioP1;P1;durP2;ratioP2;P2;SDS_P1;SDS_P2;PMS_P1;PMS_P2;Temp;Humidity;BMP_temperature;BMP_pressure;BME280_temperature;BME280_humidity;BME280_pressure;Samples;Min_cycle;Max_cycle;Signal;HPM_P1;HPM_P2
2022/03/07 00:02:16;;;;;;;48.58;27.93;;;;;;;-1.08;58.37;100910.64;2105397;83;20991;-75
2022/03/07 00:05:18;;;;;;;55.50;28.47;;;;;;;-1.07;58.45;100904.53;2104010;83;20986;-76
2022/03/07 00:08:20;;;;;;;55.75;28.52;;;;;;;-1.05;58.59;100907.89;2104699;83;21118;-80
2022/03/07 00:11:22;;;;;;;50.25;28.07;;;;;;;-1.04;58.54;100915.23;2101204;83;21302;-82
2022/03/07 00:14:23;;;;;;;46.85;26.33;;;;;;;-1.07;58.55;100912.34;2104356;83;21506;-80
2022/03/07 00:17:24;;;;;;;51.53;26.50;;;;;;;-1.11;58.44;100901.67;2101628;83;21013;-78
2022/03/07 00:20:26;;;;;;;40.03;24.50;;;;;;;-1.10;58.44;100920.74;2103845;83;21064;-83
2022/03/07 00:23:27;;;;;;;38.10;23.42;;;;;;;-1.14;58.29;100926.56;2106345;83;21602;-82
2022/03/07 00:26:29;;;;;;;40.17;23.52;;;;;;;-1.19;58.31;100918.12;2102855;83;21065;-77
2022/03/07 00:29:32;;;;;;;42.45;23.25;;;;;;;-1.23;58.37;100917.89;2099961;83;21067;-76
2022/03/07 00:32:33;;;;;;;41.80;23.57;;;;;;;-1.25;58.44;100915.34;2096995;83;20979;-83
2022/03/07 00:35:34;;;;;;;39.60;22.17;;;;;;;-1.26;58.46;100914.13;2096752;83;21049;-77
2022/03/07 00:38:36;;;;;;;35.40;21.37;;;;;;;-1.26;58.45;100910.22;2095540;83;21090;-76
2022/03/07 00:41:37;;;;;;;39.88;21.12;;;;;;;-1.31;58.36;100909.59;2095746;83;21014;-84
2022/03/07 00:44:39;;;;;;;30.82;19.87;;;;;;;-1.30;58.37;100908.20;2098750;83;21565;-77
2022/03/07 00:47:40;;;;;;;35.40;19.40;;;;;;;-1.30;58.18;100912.56;2096546;83;21000;-79
2022/03/07 00:50:45;;;;;;;26.97;16.75;;;;;;;-1.31;58.22;100897.41;2096746;83;21000;-77
2022/03/07 00:53:47;;;;;;;28.38;17.15;;;;;;;-1.31;58.03;100905.22;2096556;83;21533;-83
2022/03/07 00:56:49;;;;;;;27.65;16.73;;;;;;;-1.33;58.24;100902.30;2096807;83;21081;-79
2022/03/07 00:59:51;;;;;;;29.40;18.23;;;;;;;-1.30;58.44;100898.25;2096264;83;22152;-79
2022/03/07 01:02:52;;;;;;;28.05;17.17;;;;;;;-1.30;58.46;100901.69;2093772;83;21340;-83
2022/03/07 01:05:54;;;;;;;26.75;16.35;;;;;;;-1.32;58.62;100897.03;2095229;83;20999;-81
2022/03/07 01:08:55;;;;;;;29.67;17.42;;;;;;;-1.33;58.67;100897.09;2096255;83;21014;-79
2022/03/07 01:11:57;;;;;;;28.62;17.17;;;;;;;-1.35;58.87;100898.48;2095519;83;21058;-80
2022/03/07 01:14:59;;;;;;;29.50;17.23;;;;;;;-1.34;58.89;100900.16;2100327;83;21010;-82
2022/03/07 01:18:00;;;;;;;33.00;17.37;;;;;;;-1.37;58.75;100898.53;2097584;83;21047;-77
2022/03/07 01:21:02;;;;;;;31.20;17.85;;;;;;;-1.38;58.94;100900.77;2095130;83;21035;-82
2022/03/07 01:24:03;;;;;;;30.90;17.90;;;;;;;-1.41;58.84;100890.50;2096277;83;21003;-78
2022/03/07 01:27:05;;;;;;;30.95;18.40;;;;;;;-1.38;58.94;100898.16;2096068;83;21034;-79
2022/03/07 01:30:07;;;;;;;26.68;17.57;;;;;;;-1.38;59.04;100893.39;2079418;83;20971;-77
2022/03/07 01:33:09;;;;;;;34.90;18.55;;;;;;;-1.38;59.11;100888.18;2072350;84;21055;-79
2022/03/07 01:36:10;;;;;;;32.38;17.87;;;;;;;-1.35;59.15;100882.86;2073561;84;21093;-77
2022/03/07 01:39:12;;;;;;;33.33;17.90;;;;;;;-1.33;59.23;100884.91;2074025;84;21070;-79
2022/03/07 01:42:14;;;;;;;31.50;18.12;;;;;;;-1.31;59.32;100876.58;2071424;84;21011;-81
2022/03/07 01:45:20;;;;;;;32.80;17.77;;;;;;;-1.30;59.32;100865.23;2064022;84;21046;-77
2022/03/07 01:48:21;;;;;;;30.05;18.15;;;;;;;-1.29;59.36;100859.59;2069496;84;21062;-78
2022/03/07 01:51:23;;;;;;;29.90;17.80;;;;;;;-1.30;59.50;100857.42;2069708;84;21018;-77
2022/03/07 01:54:26;;;;;;;33.85;17.50;;;;;;;-1.33;59.53;100854.97;2072456;84;21550;-82
2022/03/07 01:57:34;;;;;;;32.23;18.25;;;;;;;-1.31;59.70;100855.75;2071513;84;21094;-79
2022/03/07 02:00:32;;;;;;;32.90;19.15;;;;;;;-1.29;59.69;100854.39;2065662;84;21044;-76
2022/03/07 02:03:34;;;;;;;31.68;18.87;;;;;;;-1.29;59.75;100857.83;2073159;84;21042;-77
2022/03/07 02:06:38;;;;;;;36.35;20.77;;;;;;;-1.26;60.01;100862.89;2072880;84;20992;-78
2022/03/07 02:09:41;;;;;;;36.45;20.92;;;;;;;-1.21;60.13;100857.44;2070968;84;21080;-79
2022/03/07 02:12:44;;;;;;;37.73;20.30;;;;;;;-1.20;60.11;100849.56;2074268;84;21121;-81
2022/03/07 02:15:55;;;;;;;35.25;21.60;;;;;;;-1.24;59.99;100849.77;2067973;84;21540;-77
2022/03/07 02:18:57;;;;;;;36.10;21.95;;;;;;;-1.20;60.08;100855.23;2069392;84;21621;-77
2022/03/07 02:22:02;;;;;;;42.80;23.80;;;;;;;-1.20;60.13;100844.36;2071312;84;21532;-79
2022/03/07 02:25:09;;;;;;;47.00;23.98;;;;;;;-1.21;60.08;100852.23;2067535;84;21095;-78
2022/03/07 02:28:11;;;;;;;40.73;22.90;;;;;;;-1.25;60.20;100845.03;2067309;84;21025;-82
2022/03/07 02:31:18;;;;;;;40.88;23.00;;;;;;;-1.28;60.37;100845.65;2089233;83;21109;-78
2022/03/07 02:34:20;;;;;;;39.13;22.70;;;;;;;-1.28;60.43;100853.45;2093897;83;21079;-79
2022/03/07 02:37:22;;;;;;;42.15;23.40;;;;;;;-1.28;60.55;100849.55;2096300;83;21059;-80
2022/03/07 02:40:25;;;;;;;39.48;22.48;;;;;;;-1.32;60.63;100857.11;2094370;83;21050;-80
2022/03/07 02:43:27;;;;;;;42.03;25.12;;;;;;;-1.30;60.68;100850.08;2099203;83;21045;-78
2022/03/07 02:46:28;;;;;;;35.43;23.02;;;;;;;-1.33;60.72;100842.41;2096627;83;21045;-78
2022/03/07 02:49:30;;;;;;;38.13;22.60;;;;;;;-1.31;60.76;100852.30;2096842;83;21061;-79
2022/03/07 02:52:31;;;;;;;40.63;23.90;;;;;;;-1.33;60.82;100849.76;2095610;83;21582;-78
2022/03/07 02:55:33;;;;;;;42.60;24.57;;;;;;;-1.35;60.85;100847.71;2096110;83;20998;-80
2022/03/07 02:58:34;;;;;;;40.12;22.40;;;;;;;-1.38;60.86;100847.39;2094231;83;20991;-83
2022/03/07 03:01:36;;;;;;;39.90;23.25;;;;;;;-1.41;60.86;100838.43;2096156;83;21499;-79
2022/03/07 03:04:38;;;;;;;37.35;22.45;;;;;;;-1.38;60.95;100839.58;2097360;83;21085;-78
2022/03/07 03:07:40;;;;;;;41.70;23.62;;;;;;;-1.41;60.99;100839.73;2098177;83;21014;-77
2022/03/07 03:10:41;;;;;;;40.73;23.35;;;;;;;-1.41;61.22;100835.83;2098818;83;21030;-75
2022/03/07 03:13:43;;;;;;;40.78;23.47;;;;;;;-1.36;61.27;100839.03;2097809;83;21483;-81
2022/03/07 03:16:44;;;;;;;39.15;22.85;;;;;;;-1.32;61.32;100833.67;2098242;83;21538;-77
2022/03/07 03:19:46;;;;;;;41.98;24.20;;;;;;;-1.30;61.30;100827.94;2095807;83;20987;-76
2022/03/07 03:22:47;;;;;;;35.92;22.37;;;;;;;-1.31;61.36;100830.17;2095075;83;20984;-79
2022/03/07 03:25:49;;;;;;;38.88;22.25;;;;;;;-1.33;61.36;100834.14;2094565;83;21023;-78
2022/03/07 03:28:50;;;;;;;36.05;20.97;;;;;;;-1.34;61.49;100828.56;2094295;83;20990;-78
2022/03/07 03:31:52;;;;;;;39.70;21.52;;;;;;;-1.37;61.69;100822.20;2095015;84;21526;-75
2022/03/07 03:34:55;;;;;;;37.83;22.62;;;;;;;-1.41;61.80;100821.51;2097379;83;20979;-77
2022/03/07 03:37:57;;;;;;;35.75;20.17;;;;;;;-1.43;61.91;100824.63;2097905;83;21552;-81
2022/03/07 03:40:58;;;;;;;36.60;19.92;;;;;;;-1.42;62.02;100823.70;2093048;83;20964;-76
2022/03/07 03:44:00;;;;;;;34.40;19.17;;;;;;;-1.43;62.05;100812.92;2097572;83;21034;-75
2022/03/07 03:47:01;;;;;;;35.60;19.77;;;;;;;-1.44;62.06;100812.52;2095493;82;21090;-81
2022/03/07 03:50:07;;;;;;;34.13;20.17;;;;;;;-1.42;62.10;100817.20;2091714;83;21059;-78
2022/03/07 03:53:09;;;;;;;34.00;19.57;;;;;;;-1.41;62.07;100814.13;2090891;83;21300;-82
2022/03/07 03:56:10;;;;;;;34.15;19.17;;;;;;;-1.38;62.13;100812.67;2095902;83;21024;-80
2022/03/07 03:59:12;;;;;;;31.90;18.57;;;;;;;-1.37;62.18;100815.23;2092819;83;20987;-80
2022/03/07 04:02:13;;;;;;;36.10;18.82;;;;;;;-1.36;62.21;100818.20;2093803;83;21042;-81
2022/03/07 04:05:16;;;;;;;29.75;18.23;;;;;;;-1.34;62.31;100817.30;2096105;83;21042;-76
2022/03/07 04:08:17;;;;;;;31.12;18.23;;;;;;;-1.32;62.35;100815.45;2096319;83;21006;-80
2022/03/07 04:11:21;;;;;;;28.38;17.70;;;;;;;-1.29;62.42;100820.53;2097599;83;21618;-79
2022/03/07 04:14:22;;;;;;;27.80;17.05;;;;;;;-1.23;62.46;100816.33;2093559;83;21046;-78
2022/03/07 04:17:24;;;;;;;34.18;18.02;;;;;;;-1.23;62.50;100808.52;2095882;83;21036;-75
2022/03/07 04:20:25;;;;;;;35.98;18.65;;;;;;;-1.20;62.63;100810.50;2094645;83;20995;-78
2022/03/07 04:23:27;;;;;;;38.53;20.65;;;;;;;-1.22;62.62;100814.94;2094011;83;21509;-76
2022/03/07 04:26:29;;;;;;;35.63;19.80;;;;;;;-1.24;62.74;100815.92;2095770;83;21165;-77
2022/03/07 04:29:31;;;;;;;48.48;25.32;;;;;;;-1.24;62.81;100814.19;2093056;83;21041;-78
2022/03/07 04:32:36;;;;;;;46.75;27.80;;;;;;;-1.20;62.92;100810.97;2093950;83;21062;-80
2022/03/07 04:35:35;;;;;;;39.70;22.17;;;;;;;-1.20;62.89;100811.80;2098543;83;21062;-77
2022/03/07 04:38:37;;;;;;;45.10;23.32;;;;;;;-1.19;63.00;100819.98;2098473;83;21002;-80
2022/03/07 04:41:44;;;;;;;46.70;23.10;;;;;;;-1.15;63.14;100820.70;2095985;83;21062;-80
2022/03/07 04:44:46;;;;;;;42.05;22.82;;;;;;;-1.14;62.99;100818.48;2098028;83;21030;-79
2022/03/07 04:47:48;;;;;;;48.00;23.67;;;;;;;-1.22;63.10;100811.03;2097453;83;20992;-74
2022/03/07 04:50:49;;;;;;;41.53;20.90;;;;;;;-1.21;63.17;100818.38;2097830;83;21015;-79
2022/03/07 04:53:51;;;;;;;41.30;20.48;;;;;;;-1.31;63.13;100823.20;2094529;83;21039;-81
2022/03/07 04:56:54;;;;;;;39.27;20.57;;;;;;;-1.36;63.31;100818.20;2093622;84;20966;-78
2022/03/07 04:59:56;;;;;;;30.92;17.77;;;;;;;-1.36;63.42;100826.48;2093341;83;21066;-77
2022/03/07 05:02:57;;;;;;;34.58;17.55;;;;;;;-1.36;63.59;100824.70;2094615;83;21062;-78
2022/03/07 05:05:59;;;;;;;34.98;17.35;;;;;;;-1.37;63.58;100830.84;2094228;83;21527;-84
2022/03/07 05:09:00;;;;;;;30.02;15.95;;;;;;;-1.32;63.73;100838.88;2096466;83;21045;-79
2022/03/07 05:12:02;;;;;;;34.23;15.98;;;;;;;-1.35;63.84;100834.69;2095029;83;21011;-79
2022/03/07 05:15:04;;;;;;;30.77;15.30;;;;;;;-1.33;64.08;100839.81;2095231;83;21066;-78
2022/03/07 05:18:06;;;;;;;33.50;15.90;;;;;;;-1.34;64.12;100841.58;2095608;83;21059;-75
2022/03/07 05:21:07;;;;;;;29.37;16.00;;;;;;;-1.31;64.32;100838.82;2097719;83;21030;-76
2022/03/07 05:24:09;;;;;;;26.55;14.63;;;;;;;-1.32;64.41;100846.69;2096705;83;21499;-78
2022/03/07 05:27:10;;;;;;;27.50;13.15;;;;;;;-1.33;64.42;100839.34;2097775;83;21064;-82
2022/03/07 05:30:16;;;;;;;24.05;13.65;;;;;;;-1.39;65.11;100837.88;2096707;83;21617;-78
2022/03/07 05:33:17;;;;;;;23.25;12.43;;;;;;;-1.45;64.93;100839.47;2067566;84;20995;-79
2022/03/07 05:36:19;;;;;;;24.00;12.88;;;;;;;-1.47;65.35;100845.20;2071038;84;21009;-82
2022/03/07 05:39:20;;;;;;;26.17;12.93;;;;;;;-1.50;65.46;100850.55;2062039;84;21047;-80
2022/03/07 05:42:22;;;;;;;29.10;12.88;;;;;;;-1.51;66.01;100859.29;2074075;84;21057;-76
2022/03/07 05:45:23;;;;;;;23.47;12.73;;;;;;;-1.51;65.83;100858.45;2070900;84;20994;-78
2022/03/07 05:48:25;;;;;;;24.05;11.45;;;;;;;-1.50;66.09;100860.97;2069806;84;20984;-82
2022/03/07 05:51:26;;;;;;;24.18;11.95;;;;;;;-1.51;67.04;100861.05;2068759;85;21065;-82
2022/03/07 05:54:27;;;;;;;24.15;12.43;;;;;;;-1.50;66.37;100864.87;2071315;84;20991;-81
2022/03/07 05:57:29;;;;;;;25.57;11.57;;;;;;;-1.47;66.50;100858.68;2065296;84;21026;-80
2022/03/07 06:00:30;;;;;;;28.35;12.80;;;;;;;-1.46;66.66;100856.48;2067963;84;21472;-80
2022/03/07 06:03:32;;;;;;;27.35;12.75;;;;;;;-1.44;67.07;100864.58;2071679;84;21091;-82
2022/03/07 06:06:33;;;;;;;25.65;12.40;;;;;;;-1.39;66.94;100869.58;2071165;84;21047;-78
2022/03/07 06:09:35;;;;;;;23.20;12.15;;;;;;;-1.37;67.20;100872.97;2067115;84;21061;-79
2022/03/07 06:12:36;;;;;;;24.67;12.50;;;;;;;-1.36;67.21;100865.53;2069266;84;21056;-78
2022/03/07 06:15:43;;;;;;;28.10;12.07;;;;;;;-1.34;67.52;100873.28;2065607;85;21008;-78
2022/03/07 06:18:41;;;;;;;22.65;11.60;;;;;;;-1.34;68.06;100872.82;2063365;84;21073;-82
2022/03/07 06:21:42;;;;;;;20.62;11.30;;;;;;;-1.30;67.83;100865.23;2067506;85;21075;-81
2022/03/07 06:24:44;;;;;;;26.93;13.03;;;;;;;-1.25;67.84;100859.81;2071047;84;21027;-78
2022/03/07 06:27:45;;;;;;;26.75;12.88;;;;;;;-1.17;68.00;100862.91;2065424;85;21049;-81
2022/03/07 06:30:48;;;;;;;22.27;12.20;;;;;;;-1.11;68.18;100868.28;2063414;85;21074;-82
2022/03/07 06:33:49;;;;;;;23.07;12.60;;;;;;;-1.04;68.32;100871.83;2056351;85;21104;-80
2022/03/07 06:36:51;;;;;;;24.52;12.40;;;;;;;-0.90;68.28;100867.25;2055774;85;21012;-80
2022/03/07 06:39:52;;;;;;;30.15;14.90;;;;;;;-0.80;68.04;100863.72;2095978;83;20996;-83
2022/03/07 06:42:54;;;;;;;30.25;13.95;;;;;;;-0.74;68.08;100860.33;2097468;83;21031;-79
2022/03/07 06:45:55;;;;;;;39.90;17.77;;;;;;;-0.73;67.96;100864.65;2092828;83;21456;-82
2022/03/07 06:48:56;;;;;;;39.90;16.32;;;;;;;-0.69;68.30;100864.03;2096182;83;21478;-80
2022/03/07 06:51:58;;;;;;;42.73;17.67;;;;;;;-0.65;68.24;100867.31;2094947;83;21078;-78
2022/03/07 06:54:59;;;;;;;33.90;15.50;;;;;;;-0.51;68.41;100860.94;2098319;83;20971;-79
2022/03/07 06:58:01;;;;;;;31.25;15.00;;;;;;;-0.10;68.66;100860.13;2099511;83;21047;-79
2022/03/07 07:01:03;;;;;;;32.65;14.98;;;;;;;0.66;68.49;100858.22;2097574;83;21012;-82
2022/03/07 07:04:04;;;;;;;25.70;13.68;;;;;;;1.48;67.93;100867.02;2093903;83;21067;-80
2022/03/07 07:07:06;;;;;;;28.60;14.30;;;;;;;2.21;67.09;100865.66;2093077;83;21481;-83
2022/03/07 07:10:09;;;;;;;23.50;11.73;;;;;;;2.35;65.96;100862.67;2100098;83;20979;-79
2022/03/07 07:13:14;;;;;;;25.82;12.40;;;;;;;2.31;65.66;100871.19;2097943;83;21046;-79
2022/03/07 07:16:14;;;;;;;25.12;11.75;;;;;;;2.13;65.16;100861.84;2093165;83;21018;-80
2022/03/07 07:19:15;;;;;;;27.15;12.60;;;;;;;1.87;65.11;100868.67;2098545;83;21063;-79
2022/03/07 07:22:17;;;;;;;29.30;12.70;;;;;;;1.74;65.35;100866.77;2098279;83;21020;-81
2022/03/07 07:25:18;;;;;;;27.27;11.35;;;;;;;2.14;65.76;100862.20;2094791;83;21062;-79
2022/03/07 07:28:19;;;;;;;21.87;11.93;;;;;;;2.65;65.15;100852.04;2094905;83;21070;-80
2022/03/07 07:31:21;;;;;;;19.40;10.08;;;;;;;3.09;64.96;100857.48;2097503;83;21014;-81
2022/03/07 07:34:23;;;;;;;22.13;11.53;;;;;;;3.61;64.65;100851.88;2107108;83;21041;-80
2022/03/07 07:37:24;;;;;;;19.40;10.60;;;;;;;4.01;63.73;100845.55;2105776;83;20998;-81
2022/03/07 07:40:26;;;;;;;20.88;11.03;;;;;;;4.29;63.17;100844.93;2104142;83;21002;-80
2022/03/07 07:43:28;;;;;;;17.75;10.82;;;;;;;4.52;62.85;100842.45;2106492;83;21041;-80
2022/03/07 07:46:29;;;;;;;18.98;11.15;;;;;;;4.76;62.60;100845.08;2106582;83;20947;-82
2022/03/07 07:49:31;;;;;;;21.70;10.00;;;;;;;5.00;62.21;100851.67;2103899;83;21473;-81
2022/03/07 07:52:32;;;;;;;20.75;9.43;;;;;;;5.36;60.76;100840.20;2105403;83;20990;-79
2022/03/07 07:55:34;;;;;;;19.40;10.25;;;;;;;5.42;61.05;100842.84;2104534;83;21039;-82
2022/03/07 07:58:35;;;;;;;17.65;10.25;;;;;;;5.58;60.45;100848.16;2100500;83;21531;-79
2022/03/07 08:01:37;;;;;;;16.52;8.93;;;;;;;5.87;60.83;100837.66;2102204;83;21046;-79
2022/03/07 08:04:39;;;;;;;13.85;8.25;;;;;;;6.00;59.31;100841.89;2103609;83;21012;-81
2022/03/07 08:07:41;;;;;;;14.10;7.67;;;;;;;6.08;58.63;100842.58;2101462;83;21460;-80
2022/03/07 08:10:43;;;;;;;17.95;10.60;;;;;;;6.11;59.10;100847.64;2098781;83;21020;-80
2022/03/07 08:13:44;;;;;;;16.90;9.30;;;;;;;6.09;58.44;100844.28;2106883;83;21516;-83
2022/03/07 08:16:46;;;;;;;17.23;9.35;;;;;;;6.21;58.87;100840.67;2103815;83;21021;-80
2022/03/07 08:19:48;;;;;;;16.15;8.75;;;;;;;6.33;58.19;100842.81;2105884;83;20982;-81
2022/03/07 08:22:51;;;;;;;15.15;8.65;;;;;;;6.20;57.34;100846.91;2102388;83;21575;-80
2022/03/07 08:25:52;;;;;;;14.50;9.50;;;;;;;6.23;57.49;100849.30;2102164;83;21031;-83
2022/03/07 08:28:54;;;;;;;13.90;7.72;;;;;;;6.29;57.76;100847.98;2103404;83;21018;-81
2022/03/07 08:31:55;;;;;;;17.15;8.25;;;;;;;6.55;57.60;100847.70;2099168;83;21039;-83
2022/03/07 08:34:57;;;;;;;16.82;8.78;;;;;;;6.44;57.20;100845.44;2096275;83;20979;-83
2022/03/07 08:37:58;;;;;;;14.43;7.95;;;;;;;6.55;56.89;100847.70;2096255;83;21017;-80
2022/03/07 08:41:00;;;;;;;14.28;9.63;;;;;;;6.62;56.64;100839.19;2095950;83;21490;-81
2022/03/07 08:44:01;;;;;;;16.25;9.35;;;;;;;6.49;55.83;100834.53;2094008;83;21095;-81
2022/03/07 08:47:03;;;;;;;17.07;9.60;;;;;;;6.05;55.46;100830.52;2099241;83;21498;-82
2022/03/07 08:50:06;;;;;;;11.80;8.23;;;;;;;5.56;56.00;100835.58;2094397;83;21031;-82
2022/03/07 08:53:08;;;;;;;19.98;9.03;;;;;;;5.25;56.35;100832.27;2096076;83;21004;-81
2022/03/07 08:56:10;;;;;;;20.85;9.45;;;;;;;5.30;57.09;100823.08;2095428;83;21499;-81
2022/03/07 08:59:11;;;;;;;13.38;7.85;;;;;;;5.34;56.75;100827.63;2096919;83;20976;-82
2022/03/07 09:02:13;;;;;;;16.90;8.95;;;;;;;5.19;56.42;100820.91;2097236;83;21081;-82
2022/03/07 09:05:15;;;;;;;12.80;8.88;;;;;;;5.06;56.74;100827.54;2095687;83;21021;-82
2022/03/07 09:08:16;;;;;;;15.30;8.78;;;;;;;5.10;56.72;100813.22;2094211;83;21542;-82
2022/03/07 09:11:17;;;;;;;17.35;9.65;;;;;;;4.97;56.56;100822.97;2094230;83;21031;-82
2022/03/07 09:14:19;;;;;;;11.90;8.15;;;;;;;4.72;57.04;100821.65;2097322;83;20999;-82
2022/03/07 09:17:20;;;;;;;14.00;9.08;;;;;;;4.50;56.66;100813.64;2093984;83;21014;-83
2022/03/07 09:20:22;;;;;;;14.68;8.95;;;;;;;4.12;56.91;100814.60;2094113;83;21629;-80
2022/03/07 09:23:24;;;;;;;14.03;8.80;;;;;;;4.25;57.70;100817.18;2097119;83;21062;-79
2022/03/07 09:26:26;;;;;;;14.73;9.38;;;;;;;4.61;57.19;100802.36;2093266;83;21023;-84
2022/03/07 09:29:27;;;;;;;15.65;9.38;;;;;;;4.83;57.50;100809.52;2092742;83;21580;-82
2022/03/07 09:32:29;;;;;;;14.20;9.93;;;;;;;5.36;57.49;100805.98;2083897;83;21091;-82
2022/03/07 09:35:34;;;;;;;12.80;8.08;;;;;;;5.69;56.79;100801.26;2072270;83;21042;-83
2022/03/07 09:38:36;;;;;;;9.58;7.58;;;;;;;5.78;56.88;100793.13;2074623;83;21021;-81
2022/03/07 09:41:42;;;;;;;11.45;8.18;;;;;;;5.91;56.78;100792.98;2065196;83;21086;-82
2022/03/07 09:44:43;;;;;;;13.58;8.65;;;;;;;6.04;56.59;100791.11;2071295;83;21164;-81
2022/03/07 09:47:46;;;;;;;12.93;8.73;;;;;;;5.97;55.80;100784.62;2073108;83;21005;-83
2022/03/07 09:50:48;;;;;;;17.23;9.05;;;;;;;5.74;55.80;100783.28;2072882;83;21044;-81
2022/03/07 09:53:49;;;;;;;13.10;9.45;;;;;;;5.54;56.13;100786.63;2075176;83;20994;-79
2022/03/07 09:56:52;;;;;;;14.43;9.40;;;;;;;5.25;56.12;100788.38;2069018;83;21488;-85
2022/03/07 09:59:54;;;;;;;13.62;9.33;;;;;;;5.06;56.72;100791.55;2072321;83;21026;-80
2022/03/07 10:03:00;;;;;;;14.98;9.65;;;;;;;5.00;56.78;100784.59;2067811;83;21053;-80
2022/03/07 10:06:01;;;;;;;19.65;11.48;;;;;;;4.89;57.06;100791.97;2079752;83;21021;-82
2022/03/07 10:09:04;;;;;;;26.73;13.15;;;;;;;4.90;57.42;100794.50;2068769;83;21507;-82
2022/03/07 10:12:07;;;;;;;18.27;11.83;;;;;;;4.94;57.37;100799.87;2072646;83;21065;-86
2022/03/07 10:15:18;;;;;;;14.98;9.98;;;;;;;4.84;57.36;100801.53;2077494;83;21520;-80
2022/03/07 10:18:19;;;;;;;15.05;9.95;;;;;;;4.82;57.36;100794.70;2080270;83;20997;-83
2022/03/07 10:21:27;;;;;;;15.53;9.88;;;;;;;4.70;57.20;100793.34;2075896;83;21053;-79
2022/03/07 10:24:34;;;;;;;18.02;11.48;;;;;;;4.54;57.31;100795.41;2073507;83;21567;-84
2022/03/07 10:27:39;;;;;;;18.77;11.85;;;;;;;4.40;57.95;100799.02;2082344;83;21528;-80
2022/03/07 10:30:41;;;;;;;18.60;11.05;;;;;;;4.38;58.07;100798.77;2076788;83;21017;-83
2022/03/07 10:33:43;;;;;;;19.32;10.80;;;;;;;4.43;57.92;100796.66;2065998;83;21082;-83
2022/03/07 10:36:46;;;;;;;19.55;10.28;;;;;;;4.47;58.05;100798.93;2064940;84;21038;-80
2022/03/07 10:39:54;;;;;;;17.77;9.83;;;;;;;4.55;57.42;100806.75;2068723;84;21066;-83
2022/03/07 10:43:00;;;;;;;15.85;8.95;;;;;;;4.54;57.51;100807.71;2069345;84;21086;-82
2022/03/07 10:46:02;;;;;;;10.98;7.35;;;;;;;4.53;57.12;100805.53;2065598;84;21044;-82
2022/03/07 10:49:08;;;;;;;12.65;7.62;;;;;;;4.48;57.34;100801.11;2063226;84;20964;-81
2022/03/07 10:52:09;;;;;;;11.63;7.90;;;;;;;4.60;57.49;100799.37;2049064;84;21014;-80
2022/03/07 10:55:13;;;;;;;14.40;8.38;;;;;;;4.56;56.98;100787.39;2068611;84;21015;-83
2022/03/07 10:58:14;;;;;;;13.00;8.23;;;;;;;4.72;57.63;100787.47;2065041;84;21601;-82
2022/03/07 11:01:29;;;;;;;13.88;9.13;;;;;;;5.03;57.78;100782.57;2063110;84;21116;-83
2022/03/07 11:04:31;;;;;;;13.13;8.55;;;;;;;5.43;57.80;100776.08;2071558;84;21703;-85
2022/03/07 11:07:33;;;;;;;21.15;7.90;;;;;;;5.75;56.96;100769.66;2064984;84;21093;-81
2022/03/07 11:10:34;;;;;;;13.03;7.92;;;;;;;6.02;56.42;100756.96;2063365;84;21034;-80
2022/03/07 11:13:36;;;;;;;13.58;8.23;;;;;;;6.02;56.01;100755.64;2066674;84;21056;-82
2022/03/07 11:16:39;;;;;;;13.15;6.90;;;;;;;5.85;55.80;100747.73;2068927;84;21063;-77
2022/03/07 11:19:42;;;;;;;15.68;8.43;;;;;;;6.04;56.16;100735.30;2067772;84;21033;-82
2022/03/07 11:22:44;;;;;;;13.18;9.55;;;;;;;6.32;55.75;100732.25;2066651;84;21529;-83
2022/03/07 11:25:48;;;;;;;18.57;8.98;;;;;;;6.43;55.00;100740.12;2075683;84;21045;-80
2022/03/07 11:28:52;;;;;;;11.35;7.80;;;;;;;6.10;55.32;100744.50;2066634;84;21041;-80
2022/03/07 11:32:01;;;;;;;15.25;8.73;;;;;;;5.83;55.41;100748.35;2074371;83;21026;-82
2022/03/07 11:35:02;;;;;;;14.38;7.72;;;;;;;6.03;56.59;100734.95;2096598;83;21525;-80
2022/03/07 11:38:17;;;;;;;13.18;7.60;;;;;;;6.46;55.81;100732.80;2097257;83;21014;-78
2022/03/07 11:41:31;;;;;;;16.48;8.78;;;;;;;6.77;55.92;100721.53;2097112;83;20998;-78
2022/03/07 11:44:33;;;;;;;13.38;8.65;;;;;;;6.90;54.97;100720.38;2094185;83;21033;-82
2022/03/07 11:47:40;;;;;;;15.88;9.08;;;;;;;6.85;54.37;100718.61;2094277;83;21473;-83
2022/03/07 11:50:41;;;;;;;12.07;9.03;;;;;;;6.92;54.15;100724.20;2099433;83;20994;-80
2022/03/07 11:53:46;;;;;;;17.32;9.28;;;;;;;6.65;53.38;100729.50;2094874;83;21294;-81
2022/03/07 11:56:48;;;;;;;13.40;8.43;;;;;;;6.35;54.34;100726.24;2094088;83;21017;-82
2022/03/07 11:59:50;;;;;;;11.80;8.40;;;;;;;6.58;54.82;100716.94;2087492;83;21048;-81
2022/03/07 12:02:56;;;;;;;14.25;9.30;;;;;;;6.86;54.57;100708.89;2092732;83;21083;-82
2022/03/07 12:06:09;;;;;;;15.55;9.20;;;;;;;6.73;53.69;100709.92;2093262;83;21044;-79
2022/03/07 12:09:32;;;;;;;13.83;8.20;;;;;;;6.50;54.17;100709.64;2070724;83;21026;-81
2022/03/07 12:12:34;;;;;;;12.60;8.75;;;;;;;6.67;53.76;100705.16;2095328;83;21020;-78
2022/03/07 12:15:50;;;;;;;12.78;8.33;;;;;;;6.80;53.09;100694.89;2097457;83;21009;-83
2022/03/07 12:18:55;;;;;;;14.63;9.38;;;;;;;6.86;53.33;100694.37;2101260;83;21025;-80
2022/03/07 12:21:57;;;;;;;17.52;8.40;;;;;;;7.04;52.72;100699.89;2065375;83;21087;-80
2022/03/07 12:25:03;;;;;;;14.47;9.33;;;;;;;7.05;51.28;100693.19;2090339;83;21058;-80
2022/03/07 12:28:05;;;;;;;14.33;9.48;;;;;;;7.01;50.39;100690.92;2099512;83;21030;-78
2022/03/07 12:31:08;;;;;;;14.58;8.90;;;;;;;6.88;50.81;100685.86;2089978;83;21313;-80
2022/03/07 12:34:09;;;;;;;15.10;9.85;;;;;;;6.60;50.70;100685.52;2096751;83;21020;-77
2022/03/07 12:37:20;;;;;;;14.40;9.40;;;;;;;6.28;51.67;100696.92;2093264;83;21051;-78
2022/03/07 12:40:21;;;;;;;;;;;;;;;6.31;51.24;100683.98;2095432;84;21074;-79
2022/03/07 12:43:22;;;;;;;15.95;9.98;;;;;;;6.67;50.63;100681.88;2094348;83;20221;-79
2022/03/07 12:46:24;;;;;;;16.57;10.72;;;;;;;6.46;49.54;100680.06;2093546;83;21470;-78
2022/03/07 12:49:25;;;;;;;16.82;10.90;;;;;;;6.22;50.74;100682.93;2094592;83;21085;-80
2022/03/07 12:52:34;;;;;;;25.40;13.48;;;;;;;6.27;50.54;100679.41;2095555;83;21062;-79
2022/03/07 12:55:35;;;;;;;19.98;11.48;;;;;;;6.34;50.67;100677.63;2094000;84;21119;-80
2022/03/07 12:58:56;;;;;;;20.60;13.48;;;;;;;6.32;50.00;100674.27;2097166;83;21030;-83
2022/03/07 13:01:58;;;;;;;18.85;11.33;;;;;;;6.19;48.80;100679.20;2095338;83;21668;-79
2022/03/07 13:04:59;;;;;;;16.52;11.15;;;;;;;6.22;48.53;100672.84;2094138;83;21046;-79
2022/03/07 13:08:03;;;;;;;17.20;10.48;;;;;;;6.25;48.66;100679.18;2095927;83;20975;-78
2022/03/07 13:11:04;;;;;;;25.05;15.25;;;;;;;6.18;48.01;100682.80;2096054;83;21020;-80
2022/03/07 13:14:06;;;;;;;24.95;14.80;;;;;;;6.09;49.29;100683.56;2096183;83;21057;-79
2022/03/07 13:17:19;;;;;;;29.63;17.05;;;;;;;6.17;48.96;100678.51;2097421;83;21011;-78
2022/03/07 13:20:25;;;;;;;20.35;13.43;;;;;;;6.18;49.04;100681.98;2097142;83;21049;-78
2022/03/07 13:23:29;;;;;;;26.15;16.07;;;;;;;6.14;48.29;100684.03;2096199;83;21074;-80
2022/03/07 13:26:32;;;;;;;24.95;15.58;;;;;;;6.19;48.09;100685.78;2097666;83;20999;-78
2022/03/07 13:29:37;;;;;;;29.87;17.90;;;;;;;6.00;48.04;100673.77;2096676;83;21043;-77
2022/03/07 13:32:45;;;;;;;20.30;13.08;;;;;;;5.72;48.49;100674.63;2098991;83;21564;-81
2022/03/07 13:35:43;;;;;;;22.42;13.35;;;;;;;5.64;47.41;100678.83;2105481;83;20994;-81
2022/03/07 13:38:45;;;;;;;18.82;10.98;;;;;;;5.61;47.86;100683.38;2109250;82;21041;-83
2022/03/07 13:41:57;;;;;;;18.75;12.20;;;;;;;5.61;46.96;100679.91;2108514;82;21029;-82
2022/03/07 13:44:59;;;;;;;19.23;11.48;;;;;;;5.65;48.49;100685.76;2109948;83;21012;-77
2022/03/07 13:48:08;;;;;;;20.48;11.60;;;;;;;5.52;47.09;100686.73;2105479;82;21033;-78
2022/03/07 13:51:09;;;;;;;18.02;10.88;;;;;;;5.32;48.06;100694.87;2107270;83;21047;-80
2022/03/07 13:54:10;;;;;;;20.92;12.43;;;;;;;5.37;48.07;100691.37;2107433;83;21119;-83
2022/03/07 13:57:12;;;;;;;21.10;11.75;;;;;;;5.37;48.32;100691.37;2109113;83;21497;-78
2022/03/07 14:00:18;;;;;;;25.30;14.53;;;;;;;5.25;48.50;100696.28;2105326;83;21578;-79